Elgin, Ohio
Current Conditions -  °F | °C
As of 4:14 PM on Friday 31 Oct 2014 (Local Time) from KAXV Reporting Station
Moderate Rain Moderate Rain  
Wind Chill: 36°   Ceiling: 1700
Heat Index: 41°   Visibility: 10mi
Dew Point: 37°   Wind: 7mph
Humidity: 87%   Direction: 320°NW
Pressure: 29.9"   Gusts: NA
Location:  40.74°N, 84.48°W
Report Text: KAXV 312014Z AUTO 32006KT 10SM RA OVC017 05/03 A2990 RMK AO2
Loading
Personal Weather Stations






























Interactive Weather Map
Tropical Storm Tracking
New forecast layout! Learn more

10-Day Weather Forecast

Advertisements
Track Severe Weather on mobile